Time;durP1;ratioP1;P1;durP2;ratioP2;P2;SDS_P1;SDS_P2;PMS_P1;PMS_P2;Temp;Humidity;BMP_temperature;BMP_pressure;BME280_temperature;BME280_humidity;BME280_pressure;Samples;Min_cycle;Max_cycle;Signal;HPM_P1;HPM_P2
2022/10/03 00:02:02;;;;;;;9.50;5.27;;;-19.90;99.90;;;;;;5016036;28;20540;-77
2022/10/03 00:04:50;;;;;;;6.03;4.73;;;-19.30;99.90;;;;;;5033006;28;20212;-76
2022/10/03 00:07:27;;;;;;;7.83;5.80;;;-20.00;99.90;;;;;;5033923;28;20184;-84
2022/10/03 00:10:37;;;;;;;16.60;5.83;;;-20.00;99.90;;;;;;5041672;28;20472;-80
2022/10/03 00:13:39;;;;;;;8.27;5.00;;;-20.50;99.90;;;;;;5009300;28;20201;-72
2022/10/03 00:16:19;;;;;;;8.33;4.67;;;-20.00;99.90;;;;;;5020602;28;20252;-88
2022/10/03 00:18:56;;;;;;;12.53;6.00;;;-19.50;99.90;;;;;;5023926;28;20185;-81
2022/10/03 00:21:37;;;;;;;7.63;4.57;;;-19.50;99.90;;;;;;5027305;28;20195;-74
2022/10/03 00:24:21;;;;;;;8.60;5.10;;;-19.40;99.90;;;;;;5023647;28;20597;-75
2022/10/03 00:27:06;;;;;;;14.43;5.67;;;-19.00;99.90;;;;;;5024129;28;20185;-82
2022/10/03 00:29:41;;;;;;;8.13;4.60;;;-18.60;99.90;;;;;;5029344;28;20190;-77
2022/10/03 00:32:12;;;;;;;9.90;5.30;;;-17.40;99.90;;;;;;5018566;28;20190;-70
2022/10/03 00:34:47;;;;;;;9.53;4.37;;;-19.50;99.90;;;;;;5041166;28;20192;-73
2022/10/03 00:37:34;;;;;;;10.50;4.83;;;-17.60;99.90;;;;;;5045403;28;20237;-75
2022/10/03 00:40:21;;;;;;;8.07;4.33;;;-16.70;99.90;;;;;;5022959;28;20595;-81
2022/10/03 00:42:53;;;;;;;8.30;4.30;;;-17.80;99.90;;;;;;5031483;28;20236;-72
2022/10/03 00:45:46;;;;;;;12.60;5.13;;;-19.70;99.90;;;;;;5034851;28;20181;-70
2022/10/03 00:48:37;;;;;;;5.17;4.67;;;-19.50;99.90;;;;;;5041812;28;20181;-69
2022/10/03 00:51:18;;;;;;;9.20;5.50;;;-20.50;99.90;;;;;;5037626;28;20179;-70
2022/10/03 00:53:53;;;;;;;8.07;4.53;;;-19.60;99.90;;;;;;5031247;28;20182;-77
2022/10/03 00:56:40;;;;;;;9.10;5.53;;;-20.60;99.90;;;;;;5029643;28;20189;-70
2022/10/03 00:59:11;;;;;;;5.67;5.17;;;-19.80;99.90;;;;;;5034842;28;20189;-79
2022/10/03 01:01:44;;;;;;;5.37;4.90;;;-19.70;99.90;;;;;;5033123;28;20215;-79
2022/10/03 01:04:29;;;;;;;8.33;3.90;;;-20.90;99.90;;;;;;5032473;28;20181;-72
2022/10/03 01:07:23;;;;;;;8.50;4.20;;;-19.00;99.90;;;;;;5028760;28;20242;-70
2022/10/03 01:10:10;;;;;;;11.53;4.97;;;-20.30;99.90;;;;;;5034804;28;20224;-77
2022/10/03 01:13:23;;;;;;;22.57;5.20;;;-19.70;99.90;;;;;;5035143;28;20608;-78
2022/10/03 01:16:35;;;;;;;14.23;5.00;;;-20.10;99.90;;;;;;5032050;28;20177;-85
2022/10/03 01:19:28;;;;;;;8.13;5.80;;;-19.20;99.90;;;;;;5024981;28;20189;-76
2022/10/03 01:22:22;;;;;;;12.43;4.90;;;-17.80;99.90;;;;;;5035831;28;20201;-82
2022/10/03 01:25:00;;;;;;;13.40;5.27;;;-18.90;99.90;;;;;;5032169;28;20180;-74
2022/10/03 01:30:41;;;;;;;13.97;6.10;;;-19.40;99.90;;;;;;5024250;28;20196;-82
2022/10/03 01:33:36;;;;;;;8.40;4.40;;;-19.30;99.90;;;;;;5031542;28;20207;-77
2022/10/03 01:36:12;;;;;;;8.73;4.37;;;-18.10;99.90;;;;;;5028568;28;20272;-69
2022/10/03 01:38:46;;;;;;;7.07;4.27;;;-18.70;99.90;;;;;;5041641;28;20180;-87
2022/10/03 01:41:46;;;;;;;7.57;4.87;;;-18.60;99.90;;;;;;5024549;28;20209;-86
2022/10/03 01:44:25;;;;;;;5.50;5.00;;;-19.20;99.90;;;;;;5030208;28;20176;-81
2022/10/03 01:47:17;;;;;;;16.67;5.97;;;-17.20;99.90;;;;;;5042743;28;20168;-87
2022/10/03 01:49:52;;;;;;;7.20;4.47;;;-20.20;99.90;;;;;;5035670;28;20182;-74
2022/10/03 01:52:30;;;;;;;7.30;5.00;;;-17.20;99.90;;;;;;5031101;28;20228;-71
2022/10/03 01:55:06;;;;;;;6.23;5.40;;;-17.30;99.90;;;;;;5036531;28;20264;-75
2022/10/03 01:58:04;;;;;;;9.10;4.10;;;-18.20;99.90;;;;;;5021146;28;20994;-80
2022/10/03 02:00:46;;;;;;;8.20;4.97;;;-17.20;99.90;;;;;;5036011;28;20237;-74
2022/10/03 02:03:20;;;;;;;14.07;5.77;;;-17.60;99.90;;;;;;5026546;28;20268;-72
2022/10/03 02:06:05;;;;;;;6.83;4.00;;;-19.30;99.90;;;;;;5034013;28;20177;-70
2022/10/03 02:08:40;;;;;;;6.37;3.90;;;-20.70;99.90;;;;;;5051440;28;20319;-73
2022/10/03 02:11:08;;;;;;;6.27;5.67;;;-17.90;99.90;;;;;;5019557;28;20251;-76
2022/10/03 02:13:47;;;;;;;4.63;4.00;;;-20.70;99.90;;;;;;5018556;28;20203;-70
2022/10/03 02:16:51;;;;;;;8.17;4.13;;;-22.30;99.90;;;;;;5016954;28;20178;-73
2022/10/03 02:19:44;;;;;;;10.00;4.87;;;-19.90;99.90;;;;;;5032495;28;20189;-76
2022/10/03 02:22:27;;;;;;;7.20;4.83;;;-21.10;99.90;;;;;;5035299;28;20236;-87
2022/10/03 02:25:19;;;;;;;17.77;5.17;;;-21.40;99.90;;;;;;5037487;28;20184;-85
2022/10/03 02:28:07;;;;;;;7.07;4.30;;;-21.00;99.90;;;;;;5030119;28;20259;-74
2022/10/03 02:30:51;;;;;;;8.83;4.47;;;-22.10;99.90;;;;;;5032839;28;20266;-75
2022/10/03 02:33:34;;;;;;;7.70;5.20;;;-20.90;99.90;;;;;;5018079;28;20611;-71
2022/10/03 02:36:15;;;;;;;7.63;4.67;;;-20.70;99.90;;;;;;5029403;28;20181;-71
2022/10/03 02:38:58;;;;;;;18.90;5.00;;;-18.90;99.90;;;;;;5037189;28;20271;-75
2022/10/03 02:41:31;;;;;;;18.10;4.83;;;-21.00;99.90;;;;;;5019713;28;20216;-71
2022/10/03 02:44:34;;;;;;;6.87;4.33;;;-21.40;99.90;;;;;;5035146;28;20181;-83
2022/10/03 02:47:28;;;;;;;9.13;3.77;;;-21.30;99.90;;;;;;5019116;28;20260;-73
2022/10/03 02:50:32;;;;;;;11.33;5.13;;;-17.60;99.90;;;;;;5026661;28;20581;-70
2022/10/03 02:53:29;;;;;;;10.77;4.93;;;-20.10;99.90;;;;;;5026788;28;20285;-72
2022/10/03 02:56:18;;;;;;;6.40;4.23;;;-17.80;99.90;;;;;;5031187;28;20535;-72
2022/10/03 02:59:09;;;;;;;5.80;5.17;;;-19.00;99.90;;;;;;5029857;28;20651;-77
2022/10/03 03:01:59;;;;;;;5.30;4.83;;;-19.00;99.90;;;;;;5033373;28;20621;-70
2022/10/03 03:04:52;;;;;;;8.93;4.50;;;-19.90;99.90;;;;;;5025264;28;20177;-72
2022/10/03 03:07:57;;;;;;;8.23;5.40;;;-19.60;99.90;;;;;;5038816;28;20178;-72
2022/10/03 03:10:55;;;;;;;7.33;4.63;;;-18.60;99.90;;;;;;5024421;28;20189;-70
2022/10/03 03:13:36;;;;;;;10.03;5.13;;;-20.00;99.90;;;;;;5031589;28;20211;-70
2022/10/03 03:16:26;;;;;;;9.00;5.03;;;-20.20;99.90;;;;;;5041599;28;20272;-68
2022/10/03 03:18:58;;;;;;;6.63;4.40;;;-21.80;99.90;;;;;;5019538;28;20188;-69
2022/10/03 03:21:33;;;;;;;9.10;5.33;;;-19.90;99.90;;;;;;5031256;28;20201;-72
2022/10/03 03:24:18;;;;;;;7.60;4.67;;;-19.00;99.90;;;;;;5026043;28;20180;-78
2022/10/03 03:26:49;;;;;;;6.10;4.50;;;-19.60;99.90;;;;;;5022892;28;20323;-69
2022/10/03 03:29:43;;;;;;;8.57;3.97;;;-17.40;99.90;;;;;;5030603;28;20184;-72
2022/10/03 03:32:35;;;;;;;7.33;4.57;;;-19.90;99.90;;;;;;5029334;28;20188;-74
2022/10/03 03:35:02;;;;;;;8.97;5.50;;;-21.20;99.90;;;;;;5008727;28;20201;-74
2022/10/03 03:37:58;;;;;;;7.67;4.87;;;-20.00;99.90;;;;;;5024519;28;20359;-74
2022/10/03 03:41:25;;;;;;;3.93;3.53;;;-21.50;99.90;;;;;;5035387;28;20180;-69
2022/10/03 03:44:15;;;;;;;4.70;4.27;;;-21.50;99.90;;;;;;5002743;28;20182;-77
2022/10/03 03:47:24;;;;;;;4.57;4.17;;;-21.40;99.90;;;;;;5013275;28;20194;-72
2022/10/03 03:50:19;;;;;;;10.83;4.10;;;-21.60;99.90;;;;;;5037135;28;20492;-71
2022/10/03 03:52:47;;;;;;;5.07;4.33;;;-21.60;99.90;;;;;;5038377;28;20507;-69
2022/10/03 03:55:35;;;;;;;5.43;4.93;;;-21.60;99.90;;;;;;5034027;28;20208;-69
2022/10/03 03:58:12;;;;;;;5.53;4.00;;;-23.50;99.90;;;;;;5051499;28;20615;-69
2022/10/03 04:00:57;;;;;;;7.90;3.90;;;-21.40;99.90;;;;;;5025317;28;20519;-69
2022/10/03 04:03:36;;;;;;;5.13;3.70;;;-22.70;99.90;;;;;;5027483;28;20187;-70
2022/10/03 04:06:07;;;;;;;10.40;4.23;;;-21.50;99.90;;;;;;5031275;28;20198;-71
2022/10/03 04:08:59;;;;;;;6.47;3.27;;;-19.90;99.90;;;;;;5023922;28;20449;-70
2022/10/03 04:11:37;;;;;;;5.30;3.83;;;-19.40;99.90;;;;;;5032225;28;20193;-71
2022/10/03 04:14:43;;;;;;;7.80;4.60;;;-18.90;99.90;;;;;;5022951;28;20509;-70
2022/10/03 04:20:11;;;;;;;6.63;4.63;;;-19.10;99.90;;;;;;5027334;28;20188;-79
2022/10/03 04:22:52;;;;;;;7.00;4.40;;;-19.80;99.90;;;;;;5028743;28;20506;-87
2022/10/03 04:25:31;;;;;;;9.37;5.10;;;-18.90;99.90;;;;;;5041400;28;20267;-87
2022/10/03 04:28:25;;;;;;;8.13;4.67;;;-18.40;99.90;;;;;;5053311;28;20181;-86
2022/10/03 04:30:54;;;;;;;12.50;4.00;;;-19.20;99.90;;;;;;5038920;28;20180;-88
2022/10/03 04:33:49;;;;;;;8.10;4.87;;;-21.30;99.90;;;;;;5043627;28;20195;-86
2022/10/03 04:36:21;;;;;;;5.07;3.60;;;-17.50;99.90;;;;;;5023872;28;20236;-85
2022/10/03 04:39:04;;;;;;;3.30;3.00;;;-20.20;99.90;;;;;;5028782;28;20184;-86
2022/10/03 04:41:57;;;;;;;7.47;3.90;;;-16.50;99.90;;;;;;5030564;28;20240;-87
2022/10/03 04:44:45;;;;;;;7.73;4.00;;;-17.40;99.90;;;;;;5049907;28;20191;-83
2022/10/03 04:47:25;;;;;;;7.40;4.33;;;-15.90;99.90;;;;;;5050268;28;20183;-71
2022/10/03 04:49:55;;;;;;;5.77;3.93;;;-17.90;99.90;;;;;;5020561;28;20611;-71
2022/10/03 04:52:38;;;;;;;5.30;3.80;;;-16.40;99.90;;;;;;5028278;28;20181;-76
2022/10/03 04:55:41;;;;;;;7.60;4.13;;;-18.60;99.90;;;;;;5024665;28;22158;-77
2022/10/03 04:58:12;;;;;;;5.10;3.93;;;-19.60;99.90;;;;;;4998387;28;20199;-69
2022/10/03 05:00:57;;;;;;;7.67;3.70;;;-19.90;99.90;;;;;;5022678;28;20276;-78
2022/10/03 05:03:46;;;;;;;6.33;3.80;;;-19.40;99.90;;;;;;5041314;28;20180;-87
2022/10/03 05:06:36;;;;;;;5.20;3.67;;;-17.80;99.90;;;;;;5036592;28;20296;-80
2022/10/03 05:09:20;;;;;;;15.50;4.27;;;-19.10;99.90;;;;;;5045938;28;20173;-82
2022/10/03 05:12:16;;;;;;;5.93;3.37;;;-19.30;99.90;;;;;;5047396;28;20180;-84
2022/10/03 05:15:06;;;;;;;8.17;4.10;;;-16.80;99.90;;;;;;5042747;28;20214;-85
2022/10/03 05:17:44;;;;;;;7.70;3.53;;;-16.50;99.90;;;;;;5043503;28;20181;-79
2022/10/03 05:20:20;;;;;;;10.53;4.00;;;-17.90;99.90;;;;;;5049672;28;20180;-85
2022/10/03 05:23:12;;;;;;;19.47;4.53;;;-17.40;99.90;;;;;;5035138;28;20177;-84
2022/10/03 05:26:13;;;;;;;9.47;3.67;;;-20.20;99.90;;;;;;5039923;28;20195;-69
2022/10/03 05:28:49;;;;;;;11.23;4.37;;;-19.00;99.90;;;;;;5034173;28;20172;-84
2022/10/03 05:31:21;;;;;;;7.17;4.63;;;-18.70;99.90;;;;;;5047705;28;20252;-85
2022/10/03 05:34:05;;;;;;;5.23;3.70;;;-17.00;99.90;;;;;;5038070;28;20246;-77
2022/10/03 05:36:46;;;;;;;9.10;3.53;;;-18.60;99.90;;;;;;5036273;28;20229;-82
2022/10/03 05:39:38;;;;;;;10.10;3.80;;;-17.90;99.90;;;;;;5032141;28;20181;-80
2022/10/03 05:42:15;;;;;;;7.30;3.90;;;-18.70;99.90;;;;;;5035185;28;20698;-73
2022/10/03 05:45:08;;;;;;;10.70;4.43;;;-18.30;99.90;;;;;;5039981;28;20188;-68
2022/10/03 05:47:47;;;;;;;7.13;3.73;;;-16.90;99.90;;;;;;5012317;28;20487;-70
2022/10/03 05:50:50;;;;;;;5.97;3.77;;;-16.70;99.90;;;;;;5033385;28;20180;-74
2022/10/03 05:53:47;;;;;;;8.50;3.57;;;-16.70;99.90;;;;;;5039110;28;20180;-79
2022/10/03 05:56:30;;;;;;;10.17;5.37;;;-15.80;99.90;;;;;;5051227;28;20275;-72
2022/10/03 05:59:16;;;;;;;9.07;5.27;;;-16.60;99.90;;;;;;5021052;28;20244;-75
2022/10/03 06:02:05;;;;;;;5.57;3.90;;;-17.50;99.90;;;;;;5025500;28;20374;-73
2022/10/03 06:05:08;;;;;;;10.80;5.37;;;-17.70;99.90;;;;;;5033680;28;20196;-73
2022/10/03 06:07:37;;;;;;;7.17;4.07;;;-17.00;99.90;;;;;;5037802;28;20181;-81
2022/10/03 06:10:08;;;;;;;25.47;5.20;;;-18.70;99.90;;;;;;5033229;28;20628;-74
2022/10/03 06:12:53;;;;;;;11.83;5.80;;;-19.20;99.90;;;;;;5039673;28;20188;-70
2022/10/03 06:15:38;;;;;;;11.20;4.53;;;-19.30;99.90;;;;;;5053238;28;20200;-76
2022/10/03 06:18:26;;;;;;;4.13;3.60;;;-19.40;99.90;;;;;;5040960;28;20470;-75
2022/10/03 06:21:06;;;;;;;11.17;5.43;;;-19.90;99.90;;;;;;5031100;28;20204;-81
2022/10/03 06:23:51;;;;;;;5.90;3.73;;;-18.30;99.90;;;;;;5046115;28;20549;-74
2022/10/03 06:26:16;;;;;;;7.40;4.30;;;-17.90;99.90;;;;;;5031856;28;20183;-71
2022/10/03 06:29:19;;;;;;;6.00;3.63;;;-17.70;99.90;;;;;;5021572;28;20177;-77
2022/10/03 06:31:58;;;;;;;8.90;4.80;;;-17.10;99.90;;;;;;5034440;28;20869;-76
2022/10/03 06:35:01;;;;;;;6.07;4.97;;;-16.90;99.90;;;;;;5028926;28;20184;-72
2022/10/03 06:37:45;;;;;;;16.07;5.07;;;-17.40;99.90;;;;;;5030305;28;20550;-79
2022/10/03 06:40:31;;;;;;;10.57;5.20;;;-16.90;99.90;;;;;;5030106;28;20208;-73
2022/10/03 06:43:15;;;;;;;5.50;4.13;;;-16.30;99.90;;;;;;5029073;28;20224;-75
2022/10/03 06:46:18;;;;;;;7.53;5.17;;;-16.10;99.90;;;;;;5027686;28;20264;-69
2022/10/03 06:49:14;;;;;;;10.23;5.97;;;-17.30;99.90;;;;;;5028875;28;20185;-74
2022/10/03 06:52:02;;;;;;;12.70;4.90;;;-17.00;99.90;;;;;;5028438;28;20182;-74
2022/10/03 06:55:03;;;;;;;9.83;5.73;;;-16.30;99.90;;;;;;5026122;28;20178;-82
2022/10/03 06:57:50;;;;;;;9.47;6.60;;;-18.20;99.90;;;;;;5028705;28;20187;-72
2022/10/03 07:00:20;;;;;;;14.70;5.77;;;-18.40;99.90;;;;;;5036014;28;20201;-78
2022/10/03 07:03:05;;;;;;;13.23;5.60;;;-19.20;99.90;;;;;;5029138;28;20180;-76
2022/10/03 07:05:49;;;;;;;5.77;4.97;;;-19.90;99.90;;;;;;5035297;28;20592;-79
2022/10/03 07:08:31;;;;;;;7.57;6.53;;;-21.30;99.90;;;;;;5030976;28;20251;-70
2022/10/03 07:11:19;;;;;;;7.40;5.30;;;-20.00;99.90;;;;;;5032008;28;20177;-76
2022/10/03 07:13:55;;;;;;;11.43;5.43;;;-19.70;99.90;;;;;;5030367;28;20255;-76
2022/10/03 07:16:49;;;;;;;7.07;5.87;;;-18.00;99.90;;;;;;5031483;28;20206;-75
2022/10/03 07:19:24;;;;;;;8.97;5.80;;;-17.90;99.90;;;;;;5035868;28;20679;-80
2022/10/03 07:22:33;;;;;;;6.77;5.40;;;-21.50;99.90;;;;;;5026846;28;20512;-74
2022/10/03 07:25:28;;;;;;;10.47;6.13;;;-22.50;99.90;;;;;;5023429;28;20197;-73
2022/10/03 07:28:27;;;;;;;15.37;5.90;;;-23.40;99.90;;;;;;5031272;28;20249;-74
2022/10/03 07:31:27;;;;;;;9.27;5.80;;;-22.00;99.90;;;;;;5033922;28;20189;-79
2022/10/03 07:34:12;;;;;;;9.33;6.13;;;-22.10;99.90;;;;;;5028931;28;20793;-70
2022/10/03 07:40:12;;;;;;;10.27;6.30;;;-18.30;99.90;;;;;;5031151;28;20196;-78
2022/10/03 07:43:11;;;;;;;11.77;5.73;;;-20.40;99.90;;;;;;5036216;28;20206;-75
2022/10/03 07:45:44;;;;;;;14.63;6.67;;;-16.70;99.90;;;;;;5029785;28;20186;-83
2022/10/03 07:48:24;;;;;;;10.50;6.73;;;-20.00;99.90;;;;;;5018200;28;20184;-80
2022/10/03 07:51:00;;;;;;;16.30;9.00;;;-21.80;99.90;;;;;;5027736;28;20262;-82
2022/10/03 07:53:56;;;;;;;16.93;8.27;;;-18.20;99.90;;;;;;5032885;28;20667;-76
2022/10/03 07:56:59;;;;;;;22.63;7.87;;;-17.80;99.90;;;;;;5028243;28;20194;-69
2022/10/03 07:59:56;;;;;;;13.57;8.57;;;-21.40;99.90;;;;;;5029148;28;20183;-79
2022/10/03 08:02:52;;;;;;;17.13;9.57;;;-19.90;99.90;;;;;;5028337;28;20212;-82
2022/10/03 08:05:33;;;;;;;17.87;9.50;;;-19.40;99.90;;;;;;5030187;28;20184;-73
2022/10/03 08:08:08;;;;;;;22.13;12.90;;;-20.10;99.90;;;;;;5035018;28;20640;-77
2022/10/03 08:11:09;;;;;;;31.97;15.80;;;-18.10;99.90;;;;;;5047130;28;20179;-70
2022/10/03 08:14:18;;;;;;;25.77;14.30;;;-13.90;99.90;;;;;;5027728;28;20197;-70
2022/10/03 08:17:10;;;;;;;36.57;14.57;;;-27.80;99.90;;;;;;5032300;28;20185;-77
2022/10/03 08:19:54;;;;;;;28.90;15.47;;;-22.50;99.90;;;;;;5030531;28;20200;-79
2022/10/03 08:22:38;;;;;;;24.53;13.47;;;-22.30;99.90;;;;;;5037097;28;20232;-75
2022/10/03 08:25:19;;;;;;;29.07;15.37;;;-21.60;99.90;;;;;;5026515;28;20180;-69
2022/10/03 08:27:58;;;;;;;24.60;14.53;;;-22.90;99.90;;;;;;5024468;28;20275;-70
2022/10/03 08:30:54;;;;;;;29.07;15.47;;;-21.50;99.90;;;;;;5020826;28;20184;-78
2022/10/03 08:33:38;;;;;;;22.63;14.80;;;-24.10;99.90;;;;;;5021891;28;20193;-74
2022/10/03 08:37:04;;;;;;;24.37;14.30;;;-26.40;99.90;;;;;;5017458;28;20282;-82
2022/10/03 08:39:48;;;;;;;19.67;13.47;;;-20.70;99.90;;;;;;5018006;28;20187;-83
2022/10/03 08:42:25;;;;;;;27.60;14.23;;;-21.80;99.90;;;;;;5031205;28;20201;-70
2022/10/03 08:44:57;;;;;;;20.97;12.37;;;-20.10;99.90;;;;;;5042909;28;20176;-71
2022/10/03 08:47:46;;;;;;;21.60;13.53;;;-23.50;99.90;;;;;;5045202;28;20169;-69
2022/10/03 08:50:40;;;;;;;26.03;14.87;;;-23.40;99.90;;;;;;5033178;28;20223;-69
2022/10/03 08:53:12;;;;;;;18.67;11.87;;;-29.30;99.90;;;;;;5025741;28;20294;-72
2022/10/03 08:56:06;;;;;;;21.20;13.20;;;-29.60;99.90;;;;;;5031030;28;20227;-72
2022/10/03 08:59:03;;;;;;;20.87;12.23;;;-28.40;99.90;;;;;;5029822;28;20205;-82
2022/10/03 09:01:46;;;;;;;13.03;10.10;;;-24.50;99.90;;;;;;5028081;28;20767;-77
2022/10/03 09:04:37;;;;;;;17.80;11.17;;;-26.60;99.90;;;;;;5027202;28;20181;-77
2022/10/03 09:07:37;;;;;;;24.87;11.33;;;-26.30;99.90;;;;;;5036392;28;20263;-79
2022/10/03 09:10:32;;;;;;;18.40;10.53;;;-26.20;99.90;;;;;;5018646;28;20279;-77
2022/10/03 09:13:22;;;;;;;20.37;10.10;;;-23.10;99.90;;;;;;5034757;28;20188;-73
2022/10/03 09:16:30;;;;;;;21.37;11.10;;;-31.10;99.90;;;;;;5037314;28;20182;-75
2022/10/03 09:19:29;;;;;;;15.90;9.47;;;-31.70;99.90;;;;;;5043273;28;20181;-79
2022/10/03 09:22:18;;;;;;;17.07;8.77;;;-35.20;99.90;;;;;;5024117;28;20203;-74
2022/10/03 09:25:23;;;;;;;29.50;8.47;;;-35.30;99.90;;;;;;5024741;28;20173;-78
2022/10/03 09:28:16;;;;;;;13.43;8.53;;;-34.60;99.90;;;;;;5025595;28;20231;-73
2022/10/03 09:31:15;;;;;;;17.27;8.17;;;-33.70;99.90;;;;;;5020385;28;20264;-78
2022/10/03 09:34:07;;;;;;;13.87;7.47;;;-27.80;99.90;;;;;;5020074;28;20192;-77
2022/10/03 09:37:04;;;;;;;14.13;7.33;;;-36.10;99.90;;;;;;5040407;28;20184;-82
2022/10/03 09:39:38;;;;;;;9.80;4.30;;;-39.10;99.90;;;;;;5021356;28;20205;-76
2022/10/03 09:42:42;;;;;;;16.07;5.47;;;-39.80;99.90;;;;;;5022984;28;20663;-82
2022/10/03 09:45:52;;;;;;;11.83;5.37;;;-40.00;99.90;;;;;;5024605;28;20176;-70
2022/10/03 09:48:33;;;;;;;12.93;4.47;;;-38.20;99.90;;;;;;5026877;28;20205;-70
2022/10/03 09:51:08;;;;;;;8.00;3.90;;;-40.00;99.90;;;;;;5019978;28;20237;-72
2022/10/03 09:53:43;;;;;;;10.50;2.77;;;-40.00;99.90;;;;;;5028987;28;20183;-69
2022/10/03 09:56:36;;;;;;;11.03;4.43;;;-35.40;99.90;;;;;;5032602;28;20279;-70
2022/10/03 09:59:10;;;;;;;12.27;4.10;;;-39.40;99.90;;;;;;5025359;28;20180;-70
2022/10/03 10:02:06;;;;;;;15.47;3.63;;;-40.00;99.90;;;;;;5026752;28;20218;-69
2022/10/03 10:04:38;;;;;;;13.63;4.57;;;-35.30;99.90;;;;;;5029203;28;20251;-70
2022/10/03 10:07:25;;;;;;;19.60;5.17;;;-32.10;99.90;;;;;;5050992;28;20318;-72
2022/10/03 10:10:18;;;;;;;8.27;3.83;;;-36.60;99.90;;;;;;5034533;28;20172;-74
2022/10/03 10:13:09;;;;;;;9.10;4.17;;;-40.00;99.90;;;;;;5018859;28;20177;-78
2022/10/03 10:15:46;;;;;;;11.13;4.70;;;-40.00;99.90;;;;;;5047403;28;20189;-74
2022/10/03 10:18:40;;;;;;;7.27;2.83;;;-32.90;99.90;;;;;;5025784;28;20268;-76
2022/10/03 10:21:50;;;;;;;9.43;3.50;;;-40.00;99.90;;;;;;5031814;28;20270;-75
2022/10/03 10:24:18;;;;;;;12.60;3.03;;;-39.10;99.90;;;;;;5024287;28;20509;-70
2022/10/03 10:27:20;;;;;;;8.37;3.30;;;-36.80;99.90;;;;;;5051924;28;20177;-71
2022/10/03 10:29:49;;;;;;;6.50;2.37;;;-37.30;99.90;;;;;;5023518;28;20176;-70
2022/10/03 10:32:36;;;;;;;12.20;3.03;;;-40.00;99.90;;;;;;5022775;28;20616;-69
2022/10/03 10:35:36;;;;;;;11.23;3.07;;;-34.60;99.90;;;;;;5030450;28;20181;-71
2022/10/03 10:38:24;;;;;;;12.87;3.30;;;-40.00;99.90;;;;;;5029382;28;20259;-71
2022/10/03 10:41:16;;;;;;;5.60;2.50;;;-40.00;99.90;;;;;;5026233;28;20303;-76
2022/10/03 10:44:07;;;;;;;10.90;3.60;;;-40.00;99.90;;;;;;5022397;28;20659;-73
2022/10/03 10:46:45;;;;;;;3.63;2.73;;;-40.00;99.90;;;;;;5026835;28;20595;-77
2022/10/03 10:49:37;;;;;;;9.63;3.13;;;-40.00;99.90;;;;;;5027175;28;20191;-68
2022/10/03 10:52:24;;;;;;;6.43;2.37;;;-40.00;99.90;;;;;;5041949;28;20230;-70
2022/10/03 10:55:03;;;;;;;7.67;2.10;;;-38.20;99.90;;;;;;5031660;28;20183;-70
2022/10/03 10:57:44;;;;;;;5.67;2.20;;;-40.00;99.90;;;;;;5036651;28;20184;-69
2022/10/03 11:00:47;;;;;;;12.83;3.03;;;-35.90;99.90;;;;;;5052021;28;20231;-69
2022/10/03 11:03:40;;;;;;;10.33;2.43;;;-37.00;99.90;;;;;;5037598;28;20487;-75
2022/10/03 11:06:18;;;;;;;5.03;2.10;;;-30.60;99.90;;;;;;5034340;28;20204;-68
2022/10/03 11:09:15;;;;;;;5.73;2.37;;;-32.90;99.90;;;;;;5029807;28;20192;-69
2022/10/03 11:12:08;;;;;;;8.03;2.47;;;-35.10;99.90;;;;;;5016559;28;20202;-70
2022/10/03 11:15:13;;;;;;;12.47;3.50;;;-32.70;99.90;;;;;;5017503;28;20612;-69
2022/10/03 11:17:47;;;;;;;8.20;2.00;;;-33.70;99.90;;;;;;5041633;28;20489;-69
2022/10/03 11:20:50;;;;;;;6.80;2.80;;;-37.30;99.90;;;;;;5030124;28;20276;-72
2022/10/03 11:23:37;;;;;;;9.93;3.57;;;-37.70;99.90;;;;;;5034952;28;20591;-69
2022/10/03 11:26:17;;;;;;;5.27;2.73;;;-36.60;99.90;;;;;;5021732;28;20180;-70
2022/10/03 11:28:51;;;;;;;7.77;1.97;;;-36.40;99.90;;;;;;5031968;28;20180;-71
2022/10/03 11:31:51;;;;;;;4.67;2.17;;;-37.30;99.90;;;;;;5044344;28;20466;-80
2022/10/03 11:34:45;;;;;;;6.93;2.90;;;-36.50;99.90;;;;;;5028806;28;20176;-69
2022/10/03 11:37:14;;;;;;;4.70;2.20;;;-39.40;99.90;;;;;;5028355;28;20193;-81
2022/10/03 11:40:06;;;;;;;8.47;2.37;;;-38.40;99.90;;;;;;5045967;28;20535;-70
2022/10/03 11:42:53;;;;;;;6.73;2.47;;;-36.60;99.90;;;;;;5034485;28;20204;-71
2022/10/03 11:45:32;;;;;;;6.00;2.13;;;-35.30;99.90;;;;;;5035186;28;20238;-76
2022/10/03 11:48:13;;;;;;;7.83;2.13;;;-39.60;99.90;;;;;;5017233;28;20699;-69
2022/10/03 11:50:48;;;;;;;6.30;2.70;;;-37.20;99.90;;;;;;5021893;28;20272;-71
2022/10/03 11:53:35;;;;;;;8.97;2.77;;;-40.00;99.90;;;;;;5026485;28;20527;-69
2022/10/03 11:56:19;;;;;;;9.33;2.97;;;-37.50;99.90;;;;;;5029849;28;20267;-69
2022/10/03 11:59:03;;;;;;;9.77;2.57;;;-40.00;99.90;;;;;;5028643;28;20572;-68
2022/10/03 12:01:36;;;;;;;10.10;2.53;;;-34.70;99.90;;;;;;5030560;28;20212;-68
2022/10/03 12:04:19;;;;;;;8.73;2.67;;;-36.00;99.90;;;;;;5017199;28;20179;-69
2022/10/03 12:09:43;;;;;;;9.87;2.43;;;-40.00;99.90;;;;;;5030550;28;20183;-74
2022/10/03 12:12:50;;;;;;;16.10;2.80;;;-40.00;99.00;;;;;;5031752;28;20200;-70
2022/10/03 12:15:19;;;;;;;3.73;1.70;;;-40.00;98.50;;;;;;5020585;28;20718;-70
2022/10/03 12:17:55;;;;;;;3.67;1.27;;;-40.00;98.30;;;;;;5028457;28;20209;-71
2022/10/03 12:20:37;;;;;;;2.93;1.43;;;-40.00;98.50;;;;;;5024783;28;20192;-70
2022/10/03 12:23:27;;;;;;;14.23;2.30;;;-40.00;96.70;;;;;;5041879;28;20189;-71
2022/10/03 12:25:55;;;;;;;11.47;2.63;;;-40.00;99.10;;;;;;5029568;28;20204;-69
2022/10/03 12:28:30;;;;;;;3.10;1.40;;;-40.00;99.90;;;;;;5028852;28;20181;-69
2022/10/03 12:31:11;;;;;;;5.40;2.13;;;-40.00;99.90;;;;;;5035268;28;20214;-74
2022/10/03 12:33:53;;;;;;;2.90;1.60;;;-40.00;99.90;;;;;;5026058;28;20275;-69
2022/10/03 12:36:45;;;;;;;4.47;1.57;;;-40.00;99.90;;;;;;5029024;28;20264;-68
2022/10/03 12:39:29;;;;;;;14.97;1.77;;;-40.00;99.90;;;;;;5033032;28;20184;-69
2022/10/03 12:42:13;;;;;;;4.03;1.30;;;-40.00;99.90;;;;;;5021722;28;20586;-68
2022/10/03 12:44:47;;;;;;;4.37;1.77;;;-38.20;99.90;;;;;;5045254;28;20211;-69
2022/10/03 12:47:19;;;;;;;4.90;1.50;;;-40.00;99.90;;;;;;5034263;28;20191;-69
2022/10/03 12:50:03;;;;;;;4.27;1.57;;;-40.00;99.90;;;;;;5040409;28;20615;-70
2022/10/03 12:53:13;;;;;;;4.67;1.23;;;-40.00;99.70;;;;;;5037471;28;20188;-70
2022/10/03 12:56:03;;;;;;;4.80;2.10;;;-40.00;94.50;;;;;;5042116;28;20234;-70
2022/10/03 12:58:47;;;;;;;3.63;1.53;;;-40.00;90.50;;;;;;5034311;28;20585;-70
2022/10/03 13:01:31;;;;;;;4.20;1.57;;;20.50;99.90;;;;;;5024730;28;20220;-69
2022/10/03 13:03:56;;;;;;;4.67;1.73;;;21.00;99.90;;;;;;5047458;28;20231;-71
2022/10/03 13:06:37;;;;;;;8.93;2.47;;;20.00;99.90;;;;;;5023624;28;20186;-75
2022/10/03 13:09:21;;;;;;;3.30;1.50;;;-40.00;94.80;;;;;;5025983;28;20243;-70
2022/10/03 13:12:15;;;;;;;5.57;1.83;;;19.00;99.90;;;;;;5027413;28;20264;-70
2022/10/03 13:15:02;;;;;;;7.67;1.80;;;18.30;99.90;;;;;;5038185;28;20208;-71
2022/10/03 13:17:35;;;;;;;8.53;2.07;;;-26.60;99.90;;;;;;5043676;28;20239;-79
2022/10/03 13:20:15;;;;;;;4.90;2.10;;;17.60;99.90;;;;;;5040977;28;20199;-82
2022/10/03 13:23:06;;;;;;;3.10;2.27;;;17.80;99.90;;;;;;5034532;28;20208;-74
2022/10/03 13:26:07;;;;;;;4.43;1.07;;;17.70;99.90;;;;;;5019983;28;20260;-72
2022/10/03 13:28:45;;;;;;;5.07;2.17;;;17.60;99.90;;;;;;5038990;28;20538;-73
2022/10/03 13:31:11;;;;;;;7.10;1.90;;;17.50;99.90;;;;;;5024024;28;20250;-81
2022/10/03 13:33:59;;;;;;;6.00;1.53;;;17.40;99.90;;;;;;5020203;28;20188;-72
2022/10/03 13:37:05;;;;;;;11.83;2.77;;;17.60;99.90;;;;;;5030926;28;20584;-72
2022/10/03 13:39:52;;;;;;;6.83;1.50;;;17.80;99.90;;;;;;5008402;28;20355;-81
2022/10/03 13:42:40;;;;;;;5.27;2.17;;;17.90;99.90;;;;;;5035520;28;20192;-75
2022/10/03 13:45:14;;;;;;;5.07;2.10;;;17.90;99.90;;;;;;5047738;28;20482;-72
2022/10/03 13:48:00;;;;;;;6.90;2.30;;;17.90;99.90;;;;;;5020720;28;20189;-81
2022/10/03 13:50:26;;;;;;;5.17;1.50;;;18.00;99.90;;;;;;5033944;28;20181;-84
2022/10/03 13:53:06;;;;;;;3.20;1.87;;;18.10;99.90;;;;;;5024054;28;20181;-70
2022/10/03 13:55:49;;;;;;;2.13;1.50;;;18.10;99.90;;;;;;5024829;28;20181;-82
2022/10/03 13:58:31;;;;;;;4.30;1.30;;;18.20;99.90;;;;;;5024018;28;20308;-76
2022/10/03 14:01:06;;;;;;;1.53;1.20;;;18.10;99.90;;;;;;5029777;28;20204;-69
2022/10/03 14:04:16;;;;;;;6.27;1.63;;;18.20;99.90;;;;;;5032062;28;20172;-81
2022/10/03 14:07:09;;;;;;;6.63;2.93;;;18.10;99.90;;;;;;5030920;28;20636;-80
2022/10/03 14:09:59;;;;;;;20.10;4.17;;;18.10;99.90;;;;;;5028691;28;20227;-70
2022/10/03 14:12:47;;;;;;;12.10;2.97;;;18.00;99.90;;;;;;5037936;28;20188;-72
2022/10/03 14:15:42;;;;;;;11.53;3.20;;;17.90;99.90;;;;;;5030016;28;20216;-70
2022/10/03 14:18:36;;;;;;;6.47;1.87;;;17.90;99.90;;;;;;5035504;28;20687;-69
2022/10/03 14:21:23;;;;;;;5.63;1.70;;;17.80;99.90;;;;;;5033808;28;20565;-70
2022/10/03 14:24:06;;;;;;;6.07;1.83;;;17.70;99.90;;;;;;5035961;28;20259;-69